New York, New York
Current Conditions -  °F | °C
As of 11:35 AM on Thursday 30 Oct 2014 (Local Time) from KJRB Reporting Station
Clear Clear  
Wind Chill: 15°   Ceiling: Unl
Heat Index: 15°   Visibility: 10mi
Dew Point:   Wind: 8mph
Humidity: 59%   Direction: 300°WNW
Pressure: 30.01"   Gusts: NA
Location:  40.71°N, 74.01°W
Report Text: KJRB 301535Z AUTO 30007KT 10SM CLR 15/07 A3001 RMK AO1
Loading
Personal Weather Stations






























Interactive Weather Map New forecast layout! Learn more

10-Day Weather Forecast

Advertisements
Track Severe Weather on mobile